createdAt,value
2022-12-18T00:01:34.723Z,91.30
2022-12-18T00:04:06.075Z,91.49
2022-12-18T00:06:36.589Z,91.61
2022-12-18T00:09:05.277Z,91.71
2022-12-18T00:11:35.107Z,91.84
2022-12-18T00:14:03.968Z,91.93
2022-12-18T00:16:34.405Z,91.94
2022-12-18T00:19:03.071Z,92.07
2022-12-18T00:21:34.581Z,92.08
2022-12-18T00:24:03.428Z,92.23
2022-12-18T00:26:34.141Z,92.35
2022-12-18T00:29:18.107Z,92.37
2022-12-18T00:31:47.125Z,92.06
2022-12-18T00:34:15.969Z,92.11
2022-12-18T00:36:44.656Z,92.28
2022-12-18T00:39:14.366Z,92.28
2022-12-18T00:42:05.191Z,92.04
2022-12-18T00:44:33.958Z,92.12
2022-12-18T00:47:03.266Z,92.27
2022-12-18T00:49:31.847Z,92.38
2022-12-18T00:52:00.623Z,92.25
2022-12-18T00:54:29.413Z,91.97
2022-12-18T00:56:58.127Z,91.88
2022-12-18T00:59:27.010Z,91.74
2022-12-18T01:01:55.969Z,91.87
2022-12-18T01:04:24.568Z,91.70
2022-12-18T01:06:53.470Z,91.64
2022-12-18T01:09:22.450Z,91.51
2022-12-18T01:11:51.356Z,91.71
2022-12-18T01:14:20.149Z,91.88
2022-12-18T01:16:49.415Z,91.80
2022-12-18T01:19:18.154Z,91.82
2022-12-18T01:21:48.766Z,91.51
2022-12-18T01:24:17.537Z,91.54
2022-12-18T01:26:46.251Z,91.65
2022-12-18T01:29:16.970Z,91.68
2022-12-18T01:31:45.785Z,91.55
2022-12-18T01:34:14.834Z,91.58
2022-12-18T01:36:43.947Z,91.56
2022-12-18T01:39:14.327Z,91.52
2022-12-18T01:42:03.230Z,91.64
2022-12-18T01:45:01.830Z,91.62
2022-12-18T01:47:30.488Z,91.60
2022-12-18T01:50:02.518Z,91.71
2022-12-18T01:52:33.567Z,91.60
2022-12-18T01:55:04.530Z,91.68
2022-12-18T01:57:33.950Z,91.48
2022-12-18T02:00:09.288Z,91.54
2022-12-18T02:02:45.703Z,91.65
2022-12-18T02:05:20.000Z,91.57
2022-12-18T02:07:59.624Z,91.44
2022-12-18T02:10:40.692Z,90.89
2022-12-18T02:13:22.556Z,90.55
2022-12-18T02:16:29.829Z,90.40
2022-12-18T02:19:02.138Z,90.71
2022-12-18T02:21:38.222Z,90.65
2022-12-18T02:24:22.448Z,90.54
2022-12-18T02:27:00.429Z,90.45
2022-12-18T02:29:42.557Z,90.87
2022-12-18T02:32:17.078Z,90.76
2022-12-18T02:34:46.168Z,90.75
2022-12-18T02:37:18.750Z,90.86
2022-12-18T02:39:49.551Z,90.60
2022-12-18T02:42:19.174Z,90.67
2022-12-18T02:44:50.830Z,90.72
2022-12-18T02:47:25.577Z,90.66
2022-12-18T02:50:07.366Z,90.46
2022-12-18T02:52:58.367Z,90.53
2022-12-18T02:55:49.686Z,90.63
2022-12-18T02:58:36.187Z,90.59
2022-12-18T03:01:17.214Z,90.59
2022-12-18T03:03:48.925Z,90.58
2022-12-18T03:06:33.893Z,91.01
2022-12-18T03:09:09.921Z,90.91
2022-12-18T03:12:00.648Z,90.88
2022-12-18T03:14:31.555Z,90.82
2022-12-18T03:17:04.224Z,90.76
2022-12-18T03:19:35.697Z,90.80
2022-12-18T03:22:05.212Z,90.96
2022-12-18T03:24:42.287Z,90.68
2022-12-18T03:27:14.168Z,90.35
2022-12-18T03:29:54.177Z,90.32
2022-12-18T03:32:30.010Z,90.50
2022-12-18T03:35:05.006Z,90.52
2022-12-18T03:37:35.717Z,90.62
2022-12-18T03:40:06.600Z,90.37
2022-12-18T03:42:55.323Z,90.10
2022-12-18T03:45:30.076Z,90.40
2022-12-18T03:48:20.145Z,90.48
2022-12-18T03:51:07.723Z,90.34
2022-12-18T03:53:49.045Z,90.43
2022-12-18T03:56:18.766Z,90.22
2022-12-18T03:58:48.658Z,90.11
2022-12-18T04:01:27.690Z,89.62
2022-12-18T04:03:57.795Z,89.75
2022-12-18T04:06:28.563Z,89.49
2022-12-18T04:08:58.921Z,89.05
2022-12-18T04:11:29.216Z,89.28
2022-12-18T04:13:59.095Z,89.30
2022-12-18T04:16:28.536Z,89.11
2022-12-18T04:18:58.826Z,89.20
2022-12-18T04:21:28.445Z,89.43
2022-12-18T04:23:56.911Z,89.46
2022-12-18T04:26:26.725Z,89.22
2022-12-18T04:29:07.506Z,89.40
2022-12-18T04:31:36.152Z,89.43
2022-12-18T04:34:05.811Z,89.41
2022-12-18T04:36:40.712Z,89.26
2022-12-18T04:39:09.604Z,89.27
2022-12-18T04:41:38.706Z,89.62
2022-12-18T04:44:07.801Z,89.65
2022-12-18T04:46:36.572Z,89.60
2022-12-18T04:49:06.524Z,89.53
2022-12-18T04:51:35.595Z,89.52
2022-12-18T04:54:05.510Z,89.53
2022-12-18T04:56:34.433Z,89.45
2022-12-18T04:59:03.407Z,89.37
2022-12-18T05:01:34.814Z,89.21
2022-12-18T05:04:05.318Z,89.17
2022-12-18T05:06:33.970Z,89.28
2022-12-18T05:09:03.165Z,89.22
2022-12-18T05:11:31.733Z,88.96
2022-12-18T05:14:00.727Z,89.13
2022-12-18T05:16:29.387Z,89.22
2022-12-18T05:18:58.306Z,89.11
2022-12-18T05:21:26.989Z,89.22
2022-12-18T05:23:55.674Z,89.26
2022-12-18T05:26:24.666Z,89.39
2022-12-18T05:28:53.367Z,89.51
2022-12-18T05:31:22.274Z,89.74
2022-12-18T05:33:51.147Z,89.66
2022-12-18T05:36:19.813Z,89.65
2022-12-18T05:38:48.607Z,89.89
2022-12-18T05:41:18.007Z,89.84
2022-12-18T05:43:46.808Z,89.48
2022-12-18T05:46:18.906Z,89.32
2022-12-18T05:48:47.858Z,89.57
2022-12-18T05:51:19.516Z,89.82
2022-12-18T05:53:48.720Z,90.10
2022-12-18T05:56:20.569Z,90.33
2022-12-18T05:58:49.359Z,89.90
2022-12-18T06:01:21.360Z,89.76
2022-12-18T06:03:50.878Z,89.78
2022-12-18T06:06:23.618Z,89.97
2022-12-18T06:08:53.320Z,90.04
2022-12-18T06:11:27.223Z,90.12
2022-12-18T06:13:59.139Z,90.05
2022-12-18T06:16:29.499Z,89.78
2022-12-18T06:18:59.387Z,89.70
2022-12-18T06:21:30.369Z,89.59
2022-12-18T06:24:01.004Z,89.40
2022-12-18T06:26:29.688Z,89.41
2022-12-18T06:28:58.462Z,89.38
2022-12-18T06:31:27.942Z,89.38
2022-12-18T06:33:57.993Z,89.61
2022-12-18T06:36:26.967Z,89.30
2022-12-18T06:38:55.861Z,89.25
2022-12-18T06:41:25.063Z,89.14
2022-12-18T06:43:59.334Z,88.92
2022-12-18T06:46:28.692Z,88.87
2022-12-18T06:48:57.574Z,88.82
2022-12-18T06:51:27.010Z,88.59
2022-12-18T06:53:56.491Z,88.92
2022-12-18T06:56:25.370Z,88.97
2022-12-18T06:58:54.573Z,89.01
2022-12-18T07:01:23.612Z,88.95
2022-12-18T07:03:57.189Z,88.88
2022-12-18T07:06:28.392Z,88.78
2022-12-18T07:08:57.511Z,88.65
2022-12-18T07:11:26.537Z,88.67
2022-12-18T07:13:56.604Z,88.80
2022-12-18T07:16:26.092Z,88.71
2022-12-18T07:18:56.616Z,88.94
2022-12-18T07:21:26.352Z,88.70
2022-12-18T07:23:55.572Z,88.83
2022-12-18T07:26:25.914Z,88.87
2022-12-18T07:28:57.954Z,88.64
2022-12-18T07:31:27.952Z,88.71
2022-12-18T07:33:57.991Z,88.39
2022-12-18T07:36:26.959Z,88.70
2022-12-18T07:39:00.370Z,88.53
2022-12-18T07:41:29.898Z,88.49
2022-12-18T07:43:59.070Z,88.39
2022-12-18T07:46:28.155Z,88.16
2022-12-18T07:48:57.347Z,88.18
2022-12-18T07:51:26.480Z,88.15
2022-12-18T07:53:57.746Z,88.04
2022-12-18T07:56:28.737Z,88.14
2022-12-18T07:58:59.707Z,88.25
2022-12-18T08:01:28.926Z,88.29
2022-12-18T08:03:59.046Z,88.34
2022-12-18T08:06:27.795Z,87.98
2022-12-18T08:08:57.490Z,88.16
2022-12-18T08:11:28.113Z,88.09
2022-12-18T08:13:58.284Z,88.00
2022-12-18T08:16:27.404Z,87.52
2022-12-18T08:18:56.424Z,87.75
2022-12-18T08:21:32.215Z,87.61
2022-12-18T08:24:02.758Z,87.51
2022-12-18T08:26:32.659Z,87.17
2022-12-18T08:29:02.207Z,86.71
2022-12-18T08:31:32.729Z,86.84
2022-12-18T08:34:01.863Z,86.88
2022-12-18T08:36:30.632Z,86.53
2022-12-18T08:38:59.342Z,86.67
2022-12-18T08:41:29.283Z,86.98
2022-12-18T08:44:17.311Z,86.87
2022-12-18T08:46:48.853Z,86.57
2022-12-18T08:49:17.417Z,85.94
2022-12-18T08:51:46.511Z,85.87
2022-12-18T08:54:15.520Z,85.32
2022-12-18T08:56:45.322Z,85.41
2022-12-18T08:59:19.364Z,85.24
2022-12-18T09:01:49.938Z,85.01
2022-12-18T09:04:18.735Z,85.15
2022-12-18T09:06:47.530Z,85.01
2022-12-18T09:09:16.416Z,85.19
2022-12-18T09:11:45.523Z,84.99
2022-12-18T09:14:14.430Z,85.20
2022-12-18T09:16:43.926Z,85.04
2022-12-18T09:19:15.260Z,84.78
2022-12-18T09:21:47.954Z,84.83
2022-12-18T09:24:18.600Z,84.97
2022-12-18T09:26:47.719Z,85.07
2022-12-18T09:29:20.142Z,85.08
2022-12-18T09:31:50.867Z,84.98
2022-12-18T09:34:22.322Z,84.78
2022-12-18T09:36:53.077Z,84.96
2022-12-18T09:39:24.163Z,85.93
2022-12-18T09:41:56.516Z,85.96
2022-12-18T09:44:37.746Z,86.52
2022-12-18T09:47:19.351Z,86.47
2022-12-18T09:49:51.488Z,86.69
2022-12-18T09:52:24.383Z,87.08
2022-12-18T09:54:58.307Z,87.44
2022-12-18T09:57:27.538Z,87.87
2022-12-18T10:00:32.113Z,87.31
2022-12-18T10:03:04.667Z,86.75
2022-12-18T10:05:43.798Z,87.46
2022-12-18T10:08:52.135Z,88.31
2022-12-18T10:11:34.345Z,89.65
2022-12-18T10:14:28.993Z,89.85
2022-12-18T10:17:42.477Z,89.96
2022-12-18T10:20:11.256Z,89.90
2022-12-18T10:23:03.306Z,90.01
2022-12-18T10:26:11.083Z,89.99
2022-12-18T10:28:42.170Z,91.05
2022-12-18T10:31:29.131Z,91.88
2022-12-18T10:33:57.834Z,91.99
2022-12-18T10:36:26.722Z,92.30
2022-12-18T10:38:55.411Z,92.62
2022-12-18T10:41:27.426Z,92.60
2022-12-18T10:44:16.661Z,92.29
2022-12-18T10:46:50.485Z,91.06
2022-12-18T10:49:29.236Z,90.79
2022-12-18T10:52:18.151Z,89.66
2022-12-18T10:54:52.807Z,89.88
2022-12-18T10:57:27.767Z,89.35
2022-12-18T10:59:58.909Z,89.01
2022-12-18T11:02:37.053Z,88.04
2022-12-18T11:05:27.343Z,87.80
2022-12-18T11:07:57.863Z,87.31
2022-12-18T11:10:31.760Z,86.84
2022-12-18T11:13:18.584Z,86.45
2022-12-18T11:15:47.958Z,85.92
2022-12-18T11:18:24.341Z,85.64
2022-12-18T11:20:58.641Z,85.67
2022-12-18T11:23:28.275Z,85.35
2022-12-18T11:26:03.161Z,84.89
2022-12-18T11:28:42.680Z,84.74
2022-12-18T11:31:29.243Z,84.38
2022-12-18T11:36:56.424Z,83.37
2022-12-18T11:39:33.402Z,83.27
2022-12-18T11:42:15.854Z,83.64
2022-12-18T11:45:20.322Z,83.73
2022-12-18T11:48:05.089Z,83.91
2022-12-18T11:50:52.410Z,83.90
2022-12-18T11:53:22.021Z,83.93
2022-12-18T11:56:04.582Z,83.93
2022-12-18T11:58:39.589Z,83.93
2022-12-18T12:01:43.951Z,84.04
2022-12-18T12:04:32.592Z,84.35
2022-12-18T12:07:29.305Z,84.38
2022-12-18T12:10:21.822Z,84.15
2022-12-18T12:12:57.184Z,84.07
2022-12-18T12:15:54.489Z,83.85
2022-12-18T12:18:57.710Z,83.36
2022-12-18T12:21:42.600Z,83.28
2022-12-18T12:24:23.651Z,83.55
2022-12-18T12:27:30.342Z,83.70
2022-12-18T12:30:05.263Z,85.01
2022-12-18T12:32:58.821Z,86.69
2022-12-18T12:35:39.102Z,87.95
2022-12-18T12:38:14.130Z,87.96
2022-12-18T12:40:54.965Z,87.82
2022-12-18T12:43:50.371Z,87.64
2022-12-18T12:46:22.827Z,86.56
2022-12-18T12:49:01.232Z,86.45
2022-12-18T12:51:34.504Z,87.36
2022-12-18T12:54:05.950Z,89.04
2022-12-18T12:56:47.884Z,90.62
2022-12-18T12:59:31.980Z,91.00
2022-12-18T13:02:22.507Z,90.79
2022-12-18T13:05:24.863Z,90.47
2022-12-18T13:08:03.039Z,89.69
2022-12-18T13:10:35.767Z,90.03
2022-12-18T13:13:10.672Z,89.98
2022-12-18T13:15:48.121Z,89.57
2022-12-18T13:18:20.359Z,89.56
2022-12-18T13:20:59.923Z,89.35
2022-12-18T13:23:37.759Z,89.22
2022-12-18T13:26:11.072Z,89.33
2022-12-18T13:28:50.602Z,89.53
2022-12-18T13:31:32.619Z,90.13
2022-12-18T13:34:34.673Z,90.29
2022-12-18T13:37:38.000Z,90.59
2022-12-18T13:40:46.090Z,91.84
2022-12-18T13:43:21.288Z,91.64
2022-12-18T13:46:11.325Z,91.39
2022-12-18T13:48:41.940Z,91.03
2022-12-18T13:51:20.290Z,91.33
2022-12-18T13:54:19.143Z,91.44
2022-12-18T13:56:50.017Z,91.28
2022-12-18T13:59:25.085Z,90.95
2022-12-18T14:01:58.810Z,90.80
2022-12-18T14:04:29.990Z,90.36
2022-12-18T14:07:07.915Z,90.17
2022-12-18T14:10:41.229Z,90.22
2022-12-18T14:13:00.994Z,90.81
2022-12-18T14:16:00.040Z,91.24
2022-12-18T14:18:46.000Z,91.51
2022-12-18T14:21:35.688Z,91.97
2022-12-18T14:24:07.527Z,92.49
2022-12-18T14:26:36.952Z,92.44
2022-12-18T14:29:25.424Z,92.45
2022-12-18T14:32:18.979Z,92.45
2022-12-18T14:34:57.544Z,92.85
2022-12-18T14:37:28.867Z,92.76
2022-12-18T14:40:07.296Z,92.66
2022-12-18T14:42:39.869Z,92.53
2022-12-18T14:45:40.942Z,92.45
2022-12-18T14:48:23.149Z,92.71
2022-12-18T14:51:18.708Z,92.62
2022-12-18T14:53:54.372Z,92.61
2022-12-18T14:56:26.583Z,92.78
2022-12-18T14:59:00.980Z,92.96
2022-12-18T15:01:40.690Z,93.28
2022-12-18T15:04:27.945Z,93.16
2022-12-18T15:07:15.681Z,93.26
2022-12-18T15:10:04.226Z,93.16
2022-12-18T15:12:51.200Z,92.95
2022-12-18T15:15:39.806Z,92.70
2022-12-18T15:18:13.463Z,93.14
2022-12-18T15:20:50.085Z,93.63
2022-12-18T15:23:32.863Z,94.00
2022-12-18T15:26:07.776Z,94.49
2022-12-18T15:29:10.131Z,95.02
2022-12-18T15:31:48.597Z,95.31
2022-12-18T15:34:28.537Z,95.70
2022-12-18T15:36:59.857Z,96.27
2022-12-18T15:39:31.325Z,96.56
2022-12-18T15:42:26.098Z,96.20
2022-12-18T15:44:57.577Z,95.94
2022-12-18T15:47:28.393Z,95.91
2022-12-18T15:49:59.183Z,95.53
2022-12-18T15:52:30.161Z,95.43
2022-12-18T15:55:23.052Z,95.53
2022-12-18T15:57:57.521Z,95.64
2022-12-18T16:00:28.168Z,95.99
2022-12-18T16:02:58.304Z,96.39
2022-12-18T16:05:31.261Z,96.31
2022-12-18T16:08:04.472Z,96.48
2022-12-18T16:10:40.084Z,96.46
2022-12-18T16:13:15.751Z,96.27
2022-12-18T16:15:46.114Z,96.16
2022-12-18T16:18:18.269Z,95.86
2022-12-18T16:20:53.358Z,95.56
2022-12-18T16:23:27.427Z,95.59
2022-12-18T16:26:00.796Z,95.29
2022-12-18T16:28:32.557Z,94.65
2022-12-18T16:31:06.315Z,94.34
2022-12-18T16:33:37.287Z,93.98
2022-12-18T16:36:08.279Z,93.84
2022-12-18T16:38:57.388Z,93.74
2022-12-18T16:41:36.109Z,93.88
2022-12-18T16:44:06.963Z,93.83
2022-12-18T16:46:37.997Z,93.83
2022-12-18T16:49:10.668Z,93.99
2022-12-18T16:51:40.322Z,94.25
2022-12-18T16:54:15.946Z,94.35
2022-12-18T16:56:52.052Z,94.32
2022-12-18T16:59:24.457Z,93.98
2022-12-18T17:01:58.052Z,93.81
2022-12-18T17:04:29.313Z,93.74
2022-12-18T17:07:01.552Z,93.79
2022-12-18T17:09:32.722Z,93.46
2022-12-18T17:12:04.720Z,93.11
2022-12-18T17:14:39.057Z,92.62
2022-12-18T17:17:21.854Z,92.51
2022-12-18T17:19:53.380Z,92.35
2022-12-18T17:22:26.851Z,91.93
2022-12-18T17:24:57.576Z,91.80
2022-12-18T17:27:29.670Z,92.08
2022-12-18T17:30:01.920Z,92.06
2022-12-18T17:32:33.108Z,91.88
2022-12-18T17:35:07.358Z,92.23
2022-12-18T17:37:40.179Z,92.30
2022-12-18T17:40:15.459Z,92.51
2022-12-18T17:42:45.396Z,92.52
2022-12-18T17:45:19.585Z,92.27
2022-12-18T17:47:53.178Z,92.33
2022-12-18T17:50:29.161Z,92.55
2022-12-18T17:53:01.846Z,92.88
2022-12-18T17:55:32.350Z,93.00
2022-12-18T17:58:03.201Z,92.85
2022-12-18T18:00:35.908Z,92.98
2022-12-18T18:03:06.145Z,92.63
2022-12-18T18:05:38.207Z,92.56
2022-12-18T18:08:08.325Z,92.64
2022-12-18T18:10:39.524Z,92.56
2022-12-18T18:13:46.673Z,92.47
2022-12-18T18:16:18.485Z,92.25
2022-12-18T18:18:50.046Z,92.18
2022-12-18T18:21:24.604Z,92.27
2022-12-18T18:23:57.526Z,92.22
2022-12-18T18:26:31.446Z,92.45
2022-12-18T18:29:05.752Z,92.58
2022-12-18T18:31:41.301Z,92.47
2022-12-18T18:34:20.192Z,92.52
2022-12-18T18:36:51.332Z,92.72
2022-12-18T18:39:24.351Z,92.73
2022-12-18T18:41:56.866Z,93.12
2022-12-18T18:44:27.910Z,93.14
2022-12-18T18:46:58.800Z,93.44
2022-12-18T18:49:30.179Z,93.54
2022-12-18T18:52:01.407Z,93.39
2022-12-18T18:54:33.893Z,93.38
2022-12-18T18:57:20.543Z,93.55
2022-12-18T18:59:54.541Z,93.85
2022-12-18T19:02:26.787Z,93.94
2022-12-18T19:04:56.771Z,93.93
2022-12-18T19:07:31.364Z,93.89
2022-12-18T19:10:05.376Z,93.98
2022-12-18T19:12:56.581Z,93.76
2022-12-18T19:15:27.910Z,93.52
2022-12-18T19:17:59.376Z,93.92
2022-12-18T19:20:35.368Z,94.00
2022-12-18T19:23:06.271Z,93.89
2022-12-18T19:25:42.118Z,94.06
2022-12-18T19:28:21.602Z,93.69
2022-12-18T19:30:59.218Z,93.86
2022-12-18T19:33:44.097Z,93.76
2022-12-18T19:36:30.215Z,93.90
2022-12-18T19:39:13.091Z,94.14
2022-12-18T19:41:53.274Z,94.20
2022-12-18T19:44:24.881Z,94.31
2022-12-18T19:46:57.890Z,94.16
2022-12-18T19:49:28.883Z,93.98
2022-12-18T19:52:00.862Z,93.90
2022-12-18T19:54:33.191Z,94.01
2022-12-18T19:57:08.653Z,94.07
2022-12-18T19:59:47.891Z,93.96
2022-12-18T20:02:23.503Z,93.71
2022-12-18T20:04:56.300Z,93.93
2022-12-18T20:07:29.201Z,93.72
2022-12-18T20:10:08.736Z,93.75
2022-12-18T20:12:43.289Z,93.51
2022-12-18T20:15:16.442Z,93.23
2022-12-18T20:17:50.964Z,93.17
2022-12-18T20:20:22.421Z,93.19
2022-12-18T20:22:53.089Z,92.68
2022-12-18T20:25:23.874Z,92.90
2022-12-18T20:27:54.339Z,92.72
2022-12-18T20:30:26.611Z,92.58
2022-12-18T20:33:02.426Z,92.71
2022-12-18T20:35:36.376Z,92.58
2022-12-18T20:38:07.311Z,92.70
2022-12-18T20:40:38.238Z,92.64
2022-12-18T20:43:10.370Z,92.43
2022-12-18T20:45:45.628Z,92.59
2022-12-18T20:48:26.735Z,92.24
2022-12-18T20:51:06.959Z,92.01
2022-12-18T20:53:41.810Z,91.97
2022-12-18T20:56:23.588Z,91.85
2022-12-18T20:58:58.294Z,91.96
2022-12-18T21:01:29.684Z,91.95
2022-12-18T21:04:01.933Z,91.78
2022-12-18T21:06:32.664Z,91.74
2022-12-18T21:09:02.876Z,91.64
2022-12-18T21:11:53.473Z,91.60
2022-12-18T21:14:26.601Z,91.63
2022-12-18T21:16:57.236Z,91.63
2022-12-18T21:19:28.170Z,91.29
2022-12-18T21:21:57.942Z,91.36
2022-12-18T21:24:28.183Z,91.20
2022-12-18T21:27:02.334Z,90.92
2022-12-18T21:29:31.682Z,90.97
2022-12-18T21:32:01.700Z,90.69
2022-12-18T21:34:32.895Z,90.47
2022-12-18T21:37:02.760Z,90.74
2022-12-18T21:39:32.165Z,90.49
2022-12-18T21:42:20.129Z,90.62
2022-12-18T21:44:50.004Z,91.12
2022-12-18T21:47:22.821Z,91.37
2022-12-18T21:49:53.756Z,91.59
2022-12-18T21:52:32.270Z,91.26
2022-12-18T21:55:08.983Z,91.77
2022-12-18T21:57:39.855Z,91.74
2022-12-18T22:00:18.327Z,91.83
2022-12-18T22:03:15.563Z,91.93
2022-12-18T22:05:39.404Z,92.30
2022-12-18T22:08:08.801Z,92.58
2022-12-18T22:10:38.497Z,92.53
2022-12-18T22:13:08.527Z,92.29
2022-12-18T22:15:37.760Z,92.34
2022-12-18T22:18:06.822Z,92.76
2022-12-18T22:20:35.705Z,92.77
2022-12-18T22:23:06.028Z,92.72
2022-12-18T22:25:39.909Z,92.72
2022-12-18T22:28:27.659Z,92.74
2022-12-18T22:30:59.666Z,92.51
2022-12-18T22:33:29.246Z,92.51
2022-12-18T22:35:58.020Z,92.25
2022-12-18T22:38:27.123Z,91.85
2022-12-18T22:40:56.850Z,91.52
2022-12-18T22:43:25.942Z,91.34
2022-12-18T22:45:55.723Z,91.26
2022-12-18T22:48:25.150Z,90.96
2022-12-18T22:50:56.747Z,90.98
2022-12-18T22:53:28.257Z,91.05
2022-12-18T22:56:07.082Z,90.86
2022-12-18T22:58:36.587Z,90.82
2022-12-18T23:01:06.603Z,90.69
2022-12-18T23:03:36.377Z,90.83
2022-12-18T23:06:06.840Z,90.99
2022-12-18T23:08:36.440Z,91.10
2022-12-18T23:11:05.577Z,91.08
2022-12-18T23:13:34.955Z,91.08
2022-12-18T23:16:14.265Z,91.35
2022-12-18T23:18:43.680Z,91.20
2022-12-18T23:21:17.263Z,91.49
2022-12-18T23:23:46.159Z,91.35
2022-12-18T23:26:25.746Z,91.55
2022-12-18T23:28:56.939Z,91.78
2022-12-18T23:31:30.901Z,91.37
2022-12-18T23:34:01.063Z,91.02
2022-12-18T23:36:30.063Z,90.74
2022-12-18T23:39:02.246Z,90.70
2022-12-18T23:41:32.082Z,90.63
2022-12-18T23:44:01.338Z,90.89
2022-12-18T23:46:31.074Z,90.74
2022-12-18T23:49:00.866Z,90.86
2022-12-18T23:51:31.702Z,90.73
2022-12-18T23:54:01.708Z,90.80
2022-12-18T23:56:31.165Z,90.78
2022-12-18T23:58:59.904Z,91.01
